Time;durP1;ratioP1;P1;durP2;ratioP2;P2;SDS_P1;SDS_P2;PMS_P1;PMS_P2;Temp;Humidity;BMP_temperature;BMP_pressure;BME280_temperature;BME280_humidity;BME280_pressure;Samples;Min_cycle;Max_cycle;Signal;HPM_P1;HPM_P2
2022/12/06 00:02:38;;;;;;;0.40;0.40;;;14.90;86.20;;;;;;5054443;28;20700;-61
2022/12/06 00:05:27;;;;;;;0.50;0.50;;;14.80;85.90;;;;;;5054889;28;20775;-62
2022/12/06 00:08:15;;;;;;;0.40;0.40;;;14.80;85.80;;;;;;5054124;28;20221;-61
2022/12/06 00:11:06;;;;;;;0.43;0.43;;;14.80;86.10;;;;;;5054146;28;20219;-63
2022/12/06 00:13:56;;;;;;;0.40;0.40;;;14.80;86.10;;;;;;5054229;28;20201;-62
2022/12/06 00:16:45;;;;;;;3.03;1.67;;;14.80;86.10;;;;;;5052909;28;20259;-61
2022/12/06 00:19:33;;;;;;;0.75;0.75;;;14.80;85.80;;;;;;5053683;28;20227;-61
2022/12/06 00:22:22;;;;;;;0.40;0.40;;;14.70;85.90;;;;;;5053328;28;20212;-61
2022/12/06 00:25:10;;;;;;;0.40;0.40;;;14.70;85.90;;;;;;5053351;28;20693;-60
2022/12/06 00:27:58;;;;;;;0.40;0.40;;;14.70;85.90;;;;;;5054150;28;20636;-61
2022/12/06 00:30:46;;;;;;;0.40;0.40;;;14.70;85.80;;;;;;5052831;28;20205;-61
2022/12/06 00:33:35;;;;;;;0.40;0.40;;;14.70;85.90;;;;;;5053843;28;20286;-61
2022/12/06 00:36:25;;;;;;;0.40;0.40;;;14.70;86.20;;;;;;5053369;28;20619;-61
2022/12/06 00:39:16;;;;;;;0.40;0.40;;;14.70;86.20;;;;;;5052749;28;20252;-61
2022/12/06 00:42:04;;;;;;;0.40;0.40;;;14.70;86.10;;;;;;5053305;28;20251;-61
2022/12/06 00:44:52;;;;;;;0.40;0.40;;;14.70;85.90;;;;;;5053489;28;20210;-61
2022/12/06 00:47:41;;;;;;;0.40;0.40;;;14.80;85.70;;;;;;5053551;28;20661;-61
2022/12/06 00:50:29;;;;;;;0.40;0.40;;;14.70;85.60;;;;;;5053086;28;20205;-61
2022/12/06 00:53:17;;;;;;;0.40;0.40;;;14.70;85.60;;;;;;5053377;28;20198;-61
2022/12/06 00:56:07;;;;;;;0.40;0.40;;;14.80;85.80;;;;;;5053497;28;20205;-60
2022/12/06 00:58:56;;;;;;;0.40;0.40;;;14.70;86.00;;;;;;5053067;28;20716;-61
2022/12/06 01:01:44;;;;;;;2.80;2.70;;;14.80;85.30;;;;;;5052873;28;20225;-61
2022/12/06 01:04:32;;;;;;;0.40;0.40;;;14.70;85.00;;;;;;5053158;28;20201;-61
2022/12/06 01:07:20;;;;;;;0.40;0.40;;;14.70;85.60;;;;;;5052766;28;20276;-61
2022/12/06 01:10:08;;;;;;;2.08;1.98;;;14.80;85.80;;;;;;5052354;28;20700;-62
2022/12/06 01:12:58;;;;;;;0.40;0.40;;;14.80;85.60;;;;;;5052680;28;20229;-61
2022/12/06 01:15:46;;;;;;;0.40;0.40;;;14.80;85.10;;;;;;5053268;28;20527;-61
2022/12/06 01:18:34;;;;;;;0.40;0.40;;;14.70;85.20;;;;;;5052567;28;20363;-61
2022/12/06 01:21:23;;;;;;;1.20;1.20;;;14.70;85.40;;;;;;5051991;28;20263;-61
2022/12/06 01:24:11;;;;;;;0.93;0.93;;;14.70;85.30;;;;;;5053102;28;20206;-61
2022/12/06 01:26:59;;;;;;;3.10;2.90;;;14.70;84.80;;;;;;5052799;28;20578;-61
2022/12/06 01:29:49;;;;;;;0.40;0.40;;;14.70;85.70;;;;;;5052856;28;20217;-61
2022/12/06 01:32:37;;;;;;;0.40;0.40;;;14.70;85.70;;;;;;5053110;28;20198;-61
2022/12/06 01:35:25;;;;;;;1.17;1.08;;;14.70;85.70;;;;;;5052789;28;20294;-61
2022/12/06 01:38:13;;;;;;;0.40;0.40;;;14.70;85.50;;;;;;5052576;28;20275;-61
2022/12/06 01:41:02;;;;;;;0.40;0.40;;;14.70;85.40;;;;;;5051906;28;20225;-61
2022/12/06 01:43:51;;;;;;;0.40;0.40;;;14.70;85.60;;;;;;5052378;28;20282;-61
2022/12/06 01:46:44;;;;;;;0.40;0.40;;;14.60;85.60;;;;;;5052245;28;20259;-61
2022/12/06 01:49:34;;;;;;;0.40;0.40;;;14.60;85.40;;;;;;5052217;28;20307;-61
2022/12/06 01:52:25;;;;;;;0.40;0.40;;;14.60;85.60;;;;;;5052837;28;20247;-61
2022/12/06 01:55:13;;;;;;;33.83;8.27;;;14.60;85.80;;;;;;5052416;28;20279;-61
2022/12/06 01:58:09;;;;;;;0.40;0.40;;;14.60;85.60;;;;;;5051906;28;20229;-61
2022/12/06 02:00:57;;;;;;;0.40;0.40;;;14.60;85.80;;;;;;5051686;28;20239;-61
2022/12/06 02:03:48;;;;;;;0.40;0.40;;;14.70;85.90;;;;;;5051750;28;20201;-61
2022/12/06 02:06:36;;;;;;;0.88;0.88;;;14.60;85.60;;;;;;5051892;28;20201;-61
2022/12/06 02:09:27;;;;;;;0.50;0.50;;;14.60;85.60;;;;;;5051718;28;20209;-61
2022/12/06 02:12:15;;;;;;;0.40;0.40;;;14.60;85.40;;;;;;5051577;28;20208;-61
2022/12/06 02:15:04;;;;;;;0.40;0.40;;;14.60;85.60;;;;;;5051625;28;20228;-62
2022/12/06 02:18:00;;;;;;;0.40;0.40;;;14.70;85.60;;;;;;5052427;28;20205;-60
2022/12/06 02:20:57;;;;;;;0.40;0.40;;;14.70;85.50;;;;;;5046918;28;20282;-61
2022/12/06 02:24:22;;;;;;;0.40;0.40;;;14.70;85.40;;;;;;5047041;28;20246;-61
2022/12/06 02:27:33;;;;;;;0.40;0.40;;;14.70;85.20;;;;;;5052043;28;20272;-61
2022/12/06 02:30:38;;;;;;;0.40;0.40;;;14.70;85.20;;;;;;5052057;28;20276;-61
2022/12/06 02:33:34;;;;;;;0.40;0.40;;;14.70;85.00;;;;;;5051360;28;20209;-62
2022/12/06 02:36:30;;;;;;;0.40;0.40;;;14.70;85.00;;;;;;5052363;28;20292;-61
2022/12/06 02:39:24;;;;;;;0.85;0.85;;;14.70;85.00;;;;;;5052135;28;20221;-60
2022/12/06 02:42:16;;;;;;;0.47;0.47;;;14.70;84.90;;;;;;5056071;28;20263;-62
2022/12/06 02:45:10;;;;;;;0.40;0.40;;;14.70;85.20;;;;;;5054892;28;20295;-61
2022/12/06 02:48:02;;;;;;;0.50;0.50;;;14.70;84.90;;;;;;5055862;28;20336;-61
2022/12/06 02:50:55;;;;;;;0.40;0.40;;;14.70;85.40;;;;;;5054742;28;20233;-62
2022/12/06 02:53:49;;;;;;;0.40;0.40;;;14.70;85.40;;;;;;5054588;28;20347;-61
2022/12/06 02:56:37;;;;;;;4.82;4.43;;;14.70;85.20;;;;;;5055566;28;20304;-61
2022/12/06 02:59:25;;;;;;;0.40;0.40;;;14.70;85.40;;;;;;5054855;28;20308;-62
2022/12/06 03:02:13;;;;;;;0.50;0.50;;;14.70;85.30;;;;;;5055622;28;20243;-62
2022/12/06 03:05:14;;;;;;;0.40;0.40;;;14.60;85.30;;;;;;5054385;28;20237;-64
2022/12/06 03:08:11;;;;;;;0.40;0.40;;;14.60;85.10;;;;;;5055239;28;20669;-61
2022/12/06 03:11:02;;;;;;;0.73;0.73;;;14.60;85.50;;;;;;5055358;28;20248;-62
2022/12/06 03:13:57;;;;;;;0.40;0.40;;;14.50;85.10;;;;;;5055252;28;20201;-61
2022/12/06 03:16:50;;;;;;;0.77;0.77;;;14.50;85.20;;;;;;5055623;28;20303;-62
2022/12/06 03:19:40;;;;;;;0.40;0.40;;;14.60;85.30;;;;;;5054626;28;20224;-61
2022/12/06 03:22:33;;;;;;;0.60;0.60;;;14.50;85.50;;;;;;5055158;28;20633;-61
2022/12/06 03:25:27;;;;;;;0.40;0.40;;;14.50;85.20;;;;;;5055029;28;20208;-61
2022/12/06 03:28:20;;;;;;;0.40;0.40;;;14.50;85.50;;;;;;5055014;28;20291;-61
2022/12/06 03:31:11;;;;;;;0.40;0.40;;;13.40;84.50;;;;;;5055208;28;20684;-62
2022/12/06 03:34:03;;;;;;;0.40;0.40;;;14.50;85.10;;;;;;5054916;28;20194;-61
2022/12/06 03:36:52;;;;;;;0.40;0.40;;;14.50;85.20;;;;;;5054911;28;20335;-60
2022/12/06 03:39:47;;;;;;;0.40;0.40;;;14.60;85.40;;;;;;5053706;28;20228;-61
2022/12/06 03:42:36;;;;;;;0.40;0.40;;;14.60;85.30;;;;;;5054769;28;20206;-60
2022/12/06 03:45:30;;;;;;;0.40;0.40;;;14.60;85.30;;;;;;5054455;28;20681;-62
2022/12/06 03:48:22;;;;;;;0.50;0.50;;;14.60;85.40;;;;;;5053386;28;20232;-61
2022/12/06 03:51:15;;;;;;;0.40;0.40;;;14.60;85.30;;;;;;5054424;28;20252;-61
2022/12/06 03:54:05;;;;;;;0.40;0.40;;;14.60;85.20;;;;;;5054563;28;20281;-61
2022/12/06 03:56:54;;;;;;;0.40;0.40;;;14.60;85.20;;;;;;5052820;28;20207;-61
2022/12/06 03:59:42;;;;;;;1.00;1.00;;;14.70;85.10;;;;;;5052995;28;20697;-61
2022/12/06 04:02:30;;;;;;;0.60;0.60;;;14.70;85.10;;;;;;5052963;28;20688;-60
2022/12/06 04:05:18;;;;;;;0.40;0.40;;;14.60;85.10;;;;;;5053087;28;20207;-60
2022/12/06 04:08:06;;;;;;;0.70;0.70;;;14.70;85.30;;;;;;5054538;28;20303;-61
2022/12/06 04:10:54;;;;;;;0.40;0.40;;;14.70;85.00;;;;;;5054102;28;20669;-61
2022/12/06 04:13:44;;;;;;;0.40;0.40;;;14.70;85.40;;;;;;5054424;28;20217;-61
2022/12/06 04:19:37;;;;;;;0.40;0.40;;;14.70;85.00;;;;;;5053544;28;20842;-61
2022/12/06 04:25:32;;;;;;;0.40;0.40;;;14.60;85.00;;;;;;5053824;28;20718;-61
2022/12/06 04:40:47;;;;;;;0.40;0.40;;;14.50;85.10;;;;;;5053559;28;20221;-61
2022/12/06 04:43:43;;;;;;;0.40;0.40;;;14.50;85.30;;;;;;5053973;28;20280;-61
2022/12/06 04:46:33;;;;;;;0.40;0.40;;;14.50;85.20;;;;;;5053351;28;20275;-61
2022/12/06 04:49:21;;;;;;;0.40;0.40;;;14.40;84.70;;;;;;5105208;22;20257;-63
2022/12/06 04:52:10;;;;;;;0.40;0.40;;;14.40;85.20;;;;;;5111390;28;20231;-63
2022/12/06 04:54:58;;;;;;;0.40;0.40;;;14.50;85.60;;;;;;5111951;28;20226;-64
2022/12/06 04:57:46;;;;;;;0.40;0.40;;;14.50;85.60;;;;;;5112233;28;20200;-63
2022/12/06 05:00:34;;;;;;;0.40;0.40;;;14.50;86.00;;;;;;5091250;28;20220;-63
2022/12/06 05:03:23;;;;;;;0.45;0.45;;;14.60;86.00;;;;;;5091685;28;20211;-63
2022/12/06 05:06:11;;;;;;;0.77;0.77;;;14.70;85.90;;;;;;5080743;28;20201;-63
2022/12/06 05:08:59;;;;;;;1.53;1.53;;;14.80;85.50;;;;;;5072522;28;20294;-63
2022/12/06 05:11:47;;;;;;;0.40;0.40;;;14.90;85.60;;;;;;5073476;28;20197;-63
2022/12/06 05:14:35;;;;;;;0.98;0.98;;;15.00;85.50;;;;;;5072618;28;20234;-64
2022/12/06 05:17:23;;;;;;;0.40;0.40;;;14.90;85.10;;;;;;5072508;28;20684;-63
2022/12/06 05:20:13;;;;;;;0.40;0.40;;;14.90;85.00;;;;;;5072447;28;20307;-63
2022/12/06 05:23:01;;;;;;;0.50;0.50;;;15.00;84.50;;;;;;5072903;28;20765;-63
2022/12/06 05:25:49;;;;;;;0.60;0.60;;;15.00;84.70;;;;;;5073317;28;20578;-63
2022/12/06 05:28:37;;;;;;;0.50;0.50;;;15.00;84.10;;;;;;5073105;28;20685;-63
2022/12/06 05:31:26;;;;;;;0.65;0.65;;;15.00;84.40;;;;;;5073671;28;20206;-63
2022/12/06 05:34:14;;;;;;;0.40;0.40;;;15.00;84.00;;;;;;5071885;28;20246;-63
2022/12/06 05:37:03;;;;;;;1.57;1.47;;;15.00;84.30;;;;;;5072021;28;20630;-63
2022/12/06 05:39:51;;;;;;;0.40;0.40;;;14.90;83.90;;;;;;5071400;28;20240;-63
2022/12/06 05:42:39;;;;;;;0.40;0.40;;;14.90;83.90;;;;;;5072442;28;20506;-63
2022/12/06 05:45:28;;;;;;;0.40;0.40;;;14.90;84.30;;;;;;5072034;28;20204;-64
2022/12/06 05:48:17;;;;;;;0.40;0.40;;;14.90;84.40;;;;;;5074821;28;20689;-63
2022/12/06 05:51:05;;;;;;;0.40;0.40;;;14.90;84.30;;;;;;5084560;28;20447;-64
2022/12/06 05:53:55;;;;;;;0.40;0.40;;;14.80;84.00;;;;;;5084763;28;20794;-63
2022/12/06 05:56:43;;;;;;;0.40;0.40;;;14.80;84.50;;;;;;5085091;28;20734;-63
2022/12/06 05:59:31;;;;;;;0.40;0.40;;;14.80;84.10;;;;;;5077010;28;20220;-63
2022/12/06 06:02:19;;;;;;;0.40;0.40;;;14.70;84.30;;;;;;5078724;28;20228;-63
2022/12/06 06:05:08;;;;;;;0.40;0.40;;;14.70;84.40;;;;;;5071788;28;20192;-63
2022/12/06 06:07:56;;;;;;;0.40;0.40;;;14.70;84.50;;;;;;5070991;28;20675;-63
2022/12/06 06:10:46;;;;;;;0.50;0.50;;;14.60;84.40;;;;;;5071252;28;20200;-63
2022/12/06 06:13:34;;;;;;;0.40;0.40;;;14.60;84.20;;;;;;5071589;28;20285;-63
2022/12/06 06:16:22;;;;;;;0.40;0.40;;;14.50;84.20;;;;;;5084430;28;20205;-64
2022/12/06 06:19:11;;;;;;;0.40;0.40;;;14.50;84.60;;;;;;5083531;28;20217;-64
2022/12/06 06:21:59;;;;;;;0.60;0.60;;;14.50;84.60;;;;;;5074639;28;20258;-63
2022/12/06 06:24:47;;;;;;;0.40;0.40;;;14.50;84.80;;;;;;5075959;28;20744;-63
2022/12/06 06:27:37;;;;;;;0.40;0.40;;;14.50;85.00;;;;;;5076048;28;20457;-63
2022/12/06 06:30:25;;;;;;;0.50;0.50;;;14.50;84.60;;;;;;5076249;28;20263;-63
2022/12/06 06:33:14;;;;;;;0.40;0.40;;;14.50;85.50;;;;;;5076071;28;20197;-63
2022/12/06 06:36:02;;;;;;;0.40;0.40;;;14.50;85.00;;;;;;5076130;28;20212;-63
2022/12/06 06:38:50;;;;;;;0.40;0.40;;;14.40;84.80;;;;;;5075753;28;20217;-63
2022/12/06 06:41:38;;;;;;;0.40;0.40;;;14.40;85.20;;;;;;5076903;28;20656;-63
2022/12/06 06:44:28;;;;;;;0.40;0.40;;;14.40;85.70;;;;;;5073412;28;20193;-62
2022/12/06 06:47:16;;;;;;;0.40;0.40;;;14.50;85.30;;;;;;5075580;28;20204;-63
2022/12/06 06:50:04;;;;;;;0.40;0.40;;;14.60;85.70;;;;;;5078392;28;20311;-63
2022/12/06 06:52:52;;;;;;;0.40;0.40;;;14.60;85.40;;;;;;5075502;28;20254;-64
2022/12/06 06:55:40;;;;;;;0.40;0.40;;;14.70;85.40;;;;;;5075830;28;20337;-63
2022/12/06 06:58:28;;;;;;;0.40;0.40;;;14.70;85.00;;;;;;5075662;28;20358;-63
2022/12/06 07:01:20;;;;;;;0.83;0.83;;;14.70;85.00;;;;;;5072113;28;20299;-63
2022/12/06 07:04:08;;;;;;;0.40;0.40;;;14.80;84.80;;;;;;5075377;28;20197;-63
2022/12/06 07:06:57;;;;;;;0.82;0.82;;;14.80;84.70;;;;;;5074585;28;20279;-63
2022/12/06 07:09:45;;;;;;;0.40;0.40;;;14.80;84.60;;;;;;5076381;28;20217;-63
2022/12/06 07:12:33;;;;;;;0.40;0.40;;;14.80;84.70;;;;;;5086060;28;20220;-64
2022/12/06 07:15:21;;;;;;;0.40;0.40;;;14.90;84.60;;;;;;5091750;28;20283;-64
2022/12/06 07:18:10;;;;;;;1.13;1.13;;;14.90;84.50;;;;;;5091765;28;20224;-63
2022/12/06 07:21:00;;;;;;;0.40;0.40;;;14.90;84.70;;;;;;5100763;28;20283;-63
2022/12/06 07:23:48;;;;;;;0.40;0.40;;;14.80;84.30;;;;;;5108504;28;20199;-64
2022/12/06 07:26:36;;;;;;;0.40;0.40;;;14.90;84.60;;;;;;5107465;28;20200;-64
2022/12/06 07:29:24;;;;;;;0.40;0.40;;;14.90;84.40;;;;;;5109729;28;20582;-64
2022/12/06 07:32:12;;;;;;;0.40;0.40;;;14.90;84.40;;;;;;5108601;28;20196;-64
2022/12/06 07:35:02;;;;;;;0.40;0.40;;;14.80;84.40;;;;;;5108586;28;20255;-64
2022/12/06 07:37:50;;;;;;;0.40;0.40;;;14.80;84.50;;;;;;5089734;28;20203;-64
2022/12/06 07:40:38;;;;;;;2.72;2.63;;;14.80;84.60;;;;;;5070841;28;20553;-64
2022/12/06 07:46:51;;;;;;;0.40;0.40;;;14.80;84.50;;;;;;5054983;28;20694;-63
2022/12/06 07:49:39;;;;;;;0.40;0.40;;;14.80;84.50;;;;;;5087741;28;20338;-63
2022/12/06 07:52:32;;;;;;;0.40;0.40;;;14.70;84.80;;;;;;5095388;28;20279;-63
2022/12/06 07:55:20;;;;;;;0.40;0.40;;;14.70;84.70;;;;;;5095352;28;20733;-63
2022/12/06 07:58:08;;;;;;;0.40;0.40;;;14.70;84.60;;;;;;5095585;28;20283;-63
2022/12/06 08:00:57;;;;;;;0.40;0.40;;;14.70;84.60;;;;;;5095155;28;20330;-63
2022/12/06 08:03:45;;;;;;;0.40;0.40;;;14.70;84.60;;;;;;5095116;28;20281;-63
2022/12/06 08:06:34;;;;;;;0.40;0.40;;;14.70;84.90;;;;;;5096316;28;20227;-63
2022/12/06 08:09:23;;;;;;;0.40;0.40;;;14.60;84.70;;;;;;5106322;28;20235;-64
2022/12/06 08:12:11;;;;;;;0.40;0.40;;;14.60;84.80;;;;;;5101118;28;20218;-64
2022/12/06 08:15:00;;;;;;;0.40;0.40;;;14.60;85.10;;;;;;5097209;28;20228;-64
2022/12/06 08:17:48;;;;;;;0.40;0.40;;;14.60;84.80;;;;;;5094516;28;20614;-63
2022/12/06 08:20:38;;;;;;;0.40;0.40;;;13.50;83.90;;;;;;5095179;28;20233;-63
2022/12/06 08:23:27;;;;;;;0.40;0.40;;;14.50;85.00;;;;;;5097677;28;20222;-63
2022/12/06 08:26:22;;;;;;;0.40;0.40;;;14.50;85.00;;;;;;5091930;28;20287;-63
2022/12/06 08:29:11;;;;;;;0.40;0.40;;;14.50;85.10;;;;;;5076208;28;20327;-63
2022/12/06 08:31:59;;;;;;;0.40;0.40;;;14.50;85.00;;;;;;5076699;28;20200;-63
2022/12/06 08:34:47;;;;;;;0.40;0.40;;;14.50;85.20;;;;;;5074247;28;20196;-63
2022/12/06 08:37:35;;;;;;;0.40;0.40;;;14.40;85.10;;;;;;5075045;28;20242;-63
2022/12/06 08:40:23;;;;;;;2.03;1.92;;;14.40;85.20;;;;;;5056196;28;20242;-63
2022/12/06 08:43:12;;;;;;;0.40;0.40;;;14.50;85.60;;;;;;5053334;28;20221;-63
2022/12/06 08:46:00;;;;;;;0.40;0.40;;;14.40;85.80;;;;;;5055605;28;20656;-63
2022/12/06 08:48:48;;;;;;;0.40;0.40;;;14.50;85.60;;;;;;5073118;28;20224;-64
2022/12/06 08:51:37;;;;;;;0.40;0.40;;;14.50;85.40;;;;;;5073505;28;20750;-63
2022/12/06 08:54:25;;;;;;;0.40;0.40;;;14.50;85.40;;;;;;5073906;28;20237;-63
2022/12/06 08:57:13;;;;;;;0.40;0.40;;;14.50;85.70;;;;;;5073854;28;20273;-63
2022/12/06 09:00:04;;;;;;;0.40;0.40;;;14.50;85.50;;;;;;5073491;28;20646;-63
2022/12/06 09:02:52;;;;;;;0.40;0.40;;;14.50;85.30;;;;;;5074269;28;20216;-63
2022/12/06 09:05:41;;;;;;;0.40;0.40;;;14.50;85.50;;;;;;5073457;28;20200;-63
2022/12/06 09:08:29;;;;;;;0.40;0.40;;;14.50;85.30;;;;;;5072978;28;20231;-64
2022/12/06 09:11:18;;;;;;;0.40;0.40;;;14.50;85.20;;;;;;5073494;28;20206;-63
2022/12/06 09:14:07;;;;;;;0.40;0.40;;;14.50;85.50;;;;;;5073004;28;20292;-63
2022/12/06 09:16:57;;;;;;;0.40;0.40;;;14.60;85.60;;;;;;5073202;28;20886;-63
2022/12/06 09:19:45;;;;;;;0.60;0.60;;;14.50;85.30;;;;;;5072927;28;20295;-64
2022/12/06 09:22:33;;;;;;;1.13;1.13;;;14.50;85.40;;;;;;5073261;28;20331;-64
2022/12/06 09:25:21;;;;;;;0.40;0.40;;;14.70;85.50;;;;;;5072282;28;20282;-63
2022/12/06 09:28:10;;;;;;;0.40;0.40;;;14.60;85.50;;;;;;5072825;28;20279;-63
2022/12/06 09:30:58;;;;;;;0.40;0.40;;;14.50;85.40;;;;;;5072478;28;20681;-64
2022/12/06 09:33:48;;;;;;;0.40;0.40;;;14.50;85.60;;;;;;5072375;28;20192;-63
2022/12/06 09:36:40;;;;;;;0.40;0.40;;;14.60;85.50;;;;;;5073101;28;20236;-63
2022/12/06 09:39:32;;;;;;;0.40;0.40;;;14.60;85.60;;;;;;5070806;28;20298;-63
2022/12/06 09:42:48;;;;;;;0.40;0.40;;;14.50;85.50;;;;;;5072006;28;20236;-63
2022/12/06 09:45:59;;;;;;;0.40;0.40;;;14.50;85.60;;;;;;5071934;28;20232;-64
2022/12/06 09:49:19;;;;;;;0.40;0.40;;;14.50;85.80;;;;;;5070376;28;20228;-63
2022/12/06 09:52:41;;;;;;;1.65;1.35;;;14.50;85.90;;;;;;5071200;28;20326;-63
2022/12/06 09:55:43;;;;;;;0.40;0.40;;;14.50;85.80;;;;;;5071842;28;20233;-63
2022/12/06 09:58:52;;;;;;;0.40;0.40;;;14.50;86.00;;;;;;5070943;28;20707;-63
2022/12/06 10:01:58;;;;;;;0.40;0.40;;;14.50;86.10;;;;;;5071234;28;20206;-63
2022/12/06 10:05:05;;;;;;;0.50;0.50;;;14.50;86.40;;;;;;5070891;28;20763;-63
2022/12/06 10:08:03;;;;;;;0.40;0.40;;;14.50;85.90;;;;;;5071473;28;20712;-63
2022/12/06 10:10:57;;;;;;;0.40;0.40;;;14.50;85.90;;;;;;5070760;28;20192;-63
2022/12/06 10:14:07;;;;;;;0.40;0.40;;;14.50;85.90;;;;;;5071212;28;20200;-63
2022/12/06 10:17:01;;;;;;;0.40;0.40;;;14.60;86.20;;;;;;5070753;28;20639;-63
2022/12/06 10:20:00;;;;;;;0.40;0.40;;;14.60;86.00;;;;;;5070247;28;20301;-63
2022/12/06 10:22:57;;;;;;;0.40;0.40;;;14.60;86.00;;;;;;5070774;28;20573;-63
2022/12/06 10:25:55;;;;;;;0.40;0.40;;;14.60;85.90;;;;;;5069887;28;20209;-63
2022/12/06 10:28:47;;;;;;;0.40;0.40;;;14.60;85.80;;;;;;5071846;28;20220;-63
2022/12/06 10:31:48;;;;;;;0.40;0.40;;;14.60;85.80;;;;;;5071771;28;20273;-63
2022/12/06 10:34:48;;;;;;;0.40;0.40;;;14.60;85.60;;;;;;5072604;28;20200;-63
2022/12/06 10:37:48;;;;;;;0.40;0.40;;;14.60;85.60;;;;;;5072511;28;20231;-63
2022/12/06 10:40:45;;;;;;;0.40;0.40;;;14.60;85.90;;;;;;5051844;28;20216;-63
2022/12/06 10:43:44;;;;;;;0.40;0.40;;;14.70;85.70;;;;;;5051453;28;20334;-63
2022/12/06 10:49:52;;;;;;;0.40;0.40;;;14.70;85.70;;;;;;5100540;22;20241;-64
2022/12/06 10:52:46;;;;;;;0.40;0.40;;;14.70;85.90;;;;;;5132168;28;20198;-64
2022/12/06 10:55:39;;;;;;;0.40;0.40;;;14.70;85.90;;;;;;5134131;28;20285;-64
2022/12/06 10:58:32;;;;;;;0.40;0.40;;;14.70;85.90;;;;;;5133039;28;20673;-65
2022/12/06 11:01:25;;;;;;;0.40;0.40;;;14.70;85.70;;;;;;5114977;28;20199;-64
2022/12/06 11:04:19;;;;;;;0.40;0.40;;;14.70;85.30;;;;;;5115124;28;20223;-63
2022/12/06 11:07:15;;;;;;;0.40;0.40;;;14.70;86.20;;;;;;5116859;28;20203;-64
2022/12/06 11:10:15;;;;;;;0.40;0.40;;;14.70;86.10;;;;;;5115176;28;20215;-64
2022/12/06 11:13:16;;;;;;;0.40;0.40;;;14.70;86.20;;;;;;5117299;28;20272;-65
2022/12/06 11:16:10;;;;;;;0.50;0.50;;;14.70;86.20;;;;;;5115047;28;20257;-64
2022/12/06 11:19:10;;;;;;;0.40;0.40;;;14.70;86.10;;;;;;5115296;28;20226;-65
2022/12/06 11:22:03;;;;;;;0.40;0.40;;;14.70;86.20;;;;;;5117228;28;20213;-66
2022/12/06 11:24:56;;;;;;;0.40;0.40;;;14.60;86.20;;;;;;5114786;28;20273;-65
2022/12/06 11:27:51;;;;;;;0.40;0.40;;;14.60;86.20;;;;;;5117071;28;20195;-66
2022/12/06 11:30:39;;;;;;;0.40;0.40;;;14.60;86.20;;;;;;5115241;28;20292;-65
2022/12/06 11:33:31;;;;;;;0.40;0.40;;;14.60;86.40;;;;;;5116764;28;20736;-64
2022/12/06 11:36:21;;;;;;;0.40;0.40;;;14.60;86.20;;;;;;5116321;28;20218;-65
2022/12/06 11:39:12;;;;;;;0.40;0.40;;;14.60;86.50;;;;;;5114305;28;20641;-65
2022/12/06 11:42:04;;;;;;;0.40;0.40;;;14.60;86.30;;;;;;5115651;28;20203;-64
2022/12/06 11:44:56;;;;;;;0.40;0.40;;;14.60;86.10;;;;;;5115257;28;20239;-64
2022/12/06 11:47:45;;;;;;;0.40;0.40;;;14.60;86.30;;;;;;5115081;28;20199;-64
2022/12/06 11:50:36;;;;;;;0.40;0.40;;;14.60;86.20;;;;;;5115401;28;20235;-64
2022/12/06 11:53:28;;;;;;;0.40;0.40;;;14.60;85.90;;;;;;5114941;28;20198;-65
2022/12/06 11:56:23;;;;;;;0.40;0.40;;;14.60;85.90;;;;;;5116012;28;20679;-64
2022/12/06 11:59:27;;;;;;;0.47;0.47;;;14.60;86.00;;;;;;5106529;28;20240;-65
2022/12/06 12:02:31;;;;;;;0.40;0.40;;;14.60;86.10;;;;;;5095788;28;20701;-66
2022/12/06 12:05:22;;;;;;;0.40;0.40;;;14.70;86.10;;;;;;5096147;28;20712;-65
2022/12/06 12:08:17;;;;;;;0.40;0.40;;;14.60;85.90;;;;;;5094872;28;20200;-64
2022/12/06 12:11:06;;;;;;;0.40;0.40;;;14.60;86.00;;;;;;5095560;28;20196;-68
2022/12/06 12:13:58;;;;;;;0.40;0.40;;;14.70;85.90;;;;;;5094357;28;20223;-64
2022/12/06 12:16:49;;;;;;;0.40;0.40;;;14.60;86.00;;;;;;5095600;28;20246;-64
2022/12/06 12:19:43;;;;;;;0.40;0.40;;;14.70;86.10;;;;;;5094821;28;20285;-65
2022/12/06 12:22:37;;;;;;;0.40;0.40;;;14.60;86.30;;;;;;5094630;28;20279;-65
2022/12/06 12:25:28;;;;;;;0.40;0.40;;;14.60;86.20;;;;;;5095152;28;20206;-66
2022/12/06 12:28:25;;;;;;;0.40;0.40;;;14.60;86.00;;;;;;5095150;28;20245;-64
2022/12/06 12:31:18;;;;;;;0.40;0.40;;;14.60;85.90;;;;;;5094996;28;20328;-65
2022/12/06 12:34:17;;;;;;;0.40;0.40;;;14.60;86.10;;;;;;5095005;28;20211;-65
2022/12/06 12:37:21;;;;;;;0.40;0.40;;;14.60;86.00;;;;;;5095804;28;20207;-64
2022/12/06 12:40:23;;;;;;;0.40;0.40;;;14.60;86.10;;;;;;5094103;28;20220;-64
2022/12/06 12:43:19;;;;;;;0.40;0.40;;;14.60;86.30;;;;;;5094202;28;20282;-64
2022/12/06 12:46:16;;;;;;;0.40;0.40;;;14.50;86.10;;;;;;5095356;28;20301;-66
2022/12/06 12:49:22;;;;;;;0.40;0.40;;;14.50;86.20;;;;;;5094459;28;20251;-64
2022/12/06 12:52:28;;;;;;;0.40;0.40;;;14.50;86.30;;;;;;5094216;28;20200;-66
2022/12/06 12:55:19;;;;;;;0.40;0.40;;;14.50;86.70;;;;;;5095007;28;20313;-65
2022/12/06 12:58:11;;;;;;;0.40;0.40;;;14.50;86.70;;;;;;5095613;28;20762;-64
2022/12/06 13:01:04;;;;;;;0.40;0.40;;;14.50;86.80;;;;;;5095241;28;20219;-66
2022/12/06 13:03:57;;;;;;;0.40;0.40;;;14.60;86.50;;;;;;5094722;28;20228;-63
2022/12/06 13:06:49;;;;;;;0.40;0.40;;;14.50;86.30;;;;;;5095222;28;20625;-65
2022/12/06 13:09:46;;;;;;;0.40;0.40;;;14.60;86.20;;;;;;5094151;28;20228;-67
2022/12/06 13:12:38;;;;;;;0.40;0.40;;;14.50;86.10;;;;;;5094627;28;20817;-66
2022/12/06 13:15:33;;;;;;;0.40;0.40;;;14.50;86.00;;;;;;5093622;28;20628;-66
2022/12/06 13:18:25;;;;;;;0.40;0.40;;;14.60;86.10;;;;;;5094039;28;20231;-68
2022/12/06 13:21:21;;;;;;;0.88;0.88;;;14.60;86.10;;;;;;5100858;28;20195;-65
2022/12/06 13:24:18;;;;;;;0.40;0.40;;;14.60;86.30;;;;;;5111038;28;20211;-65
2022/12/06 13:27:15;;;;;;;0.40;0.40;;;14.60;86.30;;;;;;5113602;28;20278;-65
2022/12/06 13:30:11;;;;;;;0.40;0.40;;;14.60;86.40;;;;;;5113557;28;20305;-65
2022/12/06 13:33:03;;;;;;;0.40;0.40;;;14.60;86.30;;;;;;5113977;28;20191;-64
2022/12/06 13:35:56;;;;;;;0.40;0.40;;;14.60;86.20;;;;;;5113794;28;20206;-65
2022/12/06 13:38:45;;;;;;;0.40;0.40;;;14.60;92.20;;;;;;5106787;28;20281;-65
2022/12/06 13:45:02;;;;;;;0.40;0.40;;;14.60;86.00;;;;;;5094988;28;20724;-64
2022/12/06 13:47:51;;;;;;;0.40;0.40;;;14.60;86.30;;;;;;5094554;28;20702;-64
2022/12/06 13:50:50;;;;;;;0.40;0.40;;;14.60;86.10;;;;;;5092899;28;20259;-66
2022/12/06 13:54:16;;;;;;;0.40;0.40;;;14.60;86.10;;;;;;5093294;28;20196;-63
2022/12/06 13:57:24;;;;;;;0.40;0.40;;;14.60;86.10;;;;;;5093263;28;20212;-62
2022/12/06 14:00:46;;;;;;;0.40;0.40;;;14.50;86.30;;;;;;5091704;28;20224;-63
2022/12/06 14:03:55;;;;;;;0.40;0.40;;;14.50;86.30;;;;;;5093111;28;20200;-64
2022/12/06 14:06:45;;;;;;;0.50;0.50;;;14.50;86.20;;;;;;5094298;28;20687;-64
2022/12/06 14:09:41;;;;;;;0.40;0.40;;;14.50;86.40;;;;;;5092309;28;20240;-64
2022/12/06 14:12:29;;;;;;;0.40;0.40;;;14.50;86.10;;;;;;5093691;28;20204;-62
2022/12/06 14:15:19;;;;;;;0.40;0.40;;;14.50;85.90;;;;;;5092678;28;20224;-63
2022/12/06 14:18:18;;;;;;;0.40;0.40;;;14.50;86.60;;;;;;5094516;28;20207;-64
2022/12/06 14:21:20;;;;;;;0.40;0.40;;;14.40;86.20;;;;;;5092691;28;20669;-63
2022/12/06 14:24:25;;;;;;;0.40;0.40;;;14.40;86.40;;;;;;5093225;28;20573;-64
2022/12/06 14:27:16;;;;;;;0.40;0.40;;;14.40;86.40;;;;;;5092787;28;20268;-63
2022/12/06 14:30:15;;;;;;;0.40;0.40;;;14.50;86.40;;;;;;5092608;28;20223;-63
2022/12/06 14:33:17;;;;;;;0.40;0.40;;;14.50;86.60;;;;;;5092430;28;20286;-64
2022/12/06 14:36:14;;;;;;;0.40;0.40;;;14.60;86.30;;;;;;5094324;28;20216;-63
2022/12/06 14:39:08;;;;;;;1.10;1.10;;;14.60;86.10;;;;;;5096493;28;20220;-63
2022/12/06 14:45:06;;;;;;;0.40;0.40;;;14.70;86.20;;;;;;5096871;28;20334;-62
2022/12/06 14:47:55;;;;;;;0.40;0.40;;;14.70;86.10;;;;;;5096541;28;20224;-63
2022/12/06 14:50:47;;;;;;;0.40;0.40;;;14.70;86.20;;;;;;5096462;28;20314;-62
2022/12/06 14:53:38;;;;;;;1.83;1.75;;;14.70;86.20;;;;;;5096785;28;20325;-64
2022/12/06 14:56:30;;;;;;;0.40;0.40;;;14.70;86.20;;;;;;5095976;28;20275;-65
2022/12/06 14:59:21;;;;;;;0.40;0.40;;;14.70;86.10;;;;;;5096483;28;20265;-64
2022/12/06 15:02:30;;;;;;;0.40;0.40;;;14.70;86.30;;;;;;5096033;28;20210;-63
2022/12/06 15:05:33;;;;;;;0.40;0.40;;;14.70;86.10;;;;;;5096342;28;20216;-63
2022/12/06 15:08:32;;;;;;;0.40;0.40;;;14.80;86.50;;;;;;5096360;28;20272;-63
2022/12/06 15:14:47;;;;;;;0.40;0.40;;;14.80;86.60;;;;;;5096492;28;20633;-63
2022/12/06 15:17:35;;;;;;;0.40;0.40;;;14.80;86.70;;;;;;5099696;28;20300;-63
2022/12/06 15:20:24;;;;;;;0.40;0.40;;;13.90;85.90;;;;;;5116116;28;20222;-63
2022/12/06 15:23:28;;;;;;;0.40;0.40;;;14.80;86.50;;;;;;5116812;28;20286;-63
2022/12/06 15:26:18;;;;;;;0.40;0.40;;;14.80;86.70;;;;;;5116336;28;20423;-64
2022/12/06 15:29:08;;;;;;;0.60;0.60;;;14.70;86.60;;;;;;5116370;28;20302;-64
2022/12/06 15:31:56;;;;;;;0.45;0.45;;;14.70;86.60;;;;;;5116335;28;20207;-63
2022/12/06 15:34:45;;;;;;;0.40;0.40;;;14.70;86.70;;;;;;5116190;28;20199;-63